sensor_id;sensor_type;location;lat;lon;timestamp;P1;durP1;ratioP1;P2;durP2;ratioP2
16654;SDS011;8441;51.344;7.022;2023-09-07T00:01:30;0.10;;;0.10;;
16654;SDS011;8441;51.344;7.022;2023-09-07T00:03:59;0.10;;;0.10;;
16654;SDS011;8441;51.344;7.022;2023-09-07T00:06:28;0.10;;;0.10;;
16654;SDS011;8441;51.344;7.022;2023-09-07T00:08:55;0.10;;;0.10;;
16654;SDS011;8441;51.344;7.022;2023-09-07T00:11:22;0.10;;;0.10;;
16654;SDS011;8441;51.344;7.022;2023-09-07T00:13:49;0.10;;;0.10;;
16654;SDS011;8441;51.344;7.022;2023-09-07T00:16:17;0.10;;;0.10;;
16654;SDS011;8441;51.344;7.022;2023-09-07T00:18:44;0.10;;;0.10;;
16654;SDS011;8441;51.344;7.022;2023-09-07T00:21:13;0.10;;;0.10;;
16654;SDS011;8441;51.344;7.022;2023-09-07T00:23:40;0.10;;;0.10;;
16654;SDS011;8441;51.344;7.022;2023-09-07T00:26:07;0.15;;;0.15;;
16654;SDS011;8441;51.344;7.022;2023-09-07T00:28:37;0.05;;;0.05;;
16654;SDS011;8441;51.344;7.022;2023-09-07T00:31:04;0.10;;;0.10;;
16654;SDS011;8441;51.344;7.022;2023-09-07T00:33:31;0.15;;;0.15;;
16654;SDS011;8441;51.344;7.022;2023-09-07T00:36:01;0.10;;;0.10;;
16654;SDS011;8441;51.344;7.022;2023-09-07T00:38:29;0.20;;;0.20;;
16654;SDS011;8441;51.344;7.022;2023-09-07T00:40:57;0.13;;;0.13;;
16654;SDS011;8441;51.344;7.022;2023-09-07T00:43:24;0.10;;;0.10;;
16654;SDS011;8441;51.344;7.022;2023-09-07T00:45:51;0.10;;;0.10;;
16654;SDS011;8441;51.344;7.022;2023-09-07T00:48:19;0.10;;;0.10;;
16654;SDS011;8441;51.344;7.022;2023-09-07T00:50:46;0.10;;;0.10;;
16654;SDS011;8441;51.344;7.022;2023-09-07T00:53:14;0.10;;;0.10;;
16654;SDS011;8441;51.344;7.022;2023-09-07T00:55:43;0.10;;;0.10;;
16654;SDS011;8441;51.344;7.022;2023-09-07T00:58:11;0.10;;;0.10;;
16654;SDS011;8441;51.344;7.022;2023-09-07T01:00:38;0.10;;;0.10;;
16654;SDS011;8441;51.344;7.022;2023-09-07T01:03:06;0.10;;;0.10;;
16654;SDS011;8441;51.344;7.022;2023-09-07T01:05:35;0.10;;;0.10;;
16654;SDS011;8441;51.344;7.022;2023-09-07T01:08:10;0.10;;;0.10;;
16654;SDS011;8441;51.344;7.022;2023-09-07T01:10:45;0.10;;;0.10;;
16654;SDS011;8441;51.344;7.022;2023-09-07T01:13:12;0.10;;;0.10;;
16654;SDS011;8441;51.344;7.022;2023-09-07T01:15:40;0.00;;;0.00;;
16654;SDS011;8441;51.344;7.022;2023-09-07T01:18:07;0.10;;;0.10;;
16654;SDS011;8441;51.344;7.022;2023-09-07T01:20:35;0.10;;;0.10;;
16654;SDS011;8441;51.344;7.022;2023-09-07T01:23:07;0.10;;;0.10;;
16654;SDS011;8441;51.344;7.022;2023-09-07T01:25:35;0.10;;;0.10;;
16654;SDS011;8441;51.344;7.022;2023-09-07T01:28:02;0.10;;;0.10;;
16654;SDS011;8441;51.344;7.022;2023-09-07T01:30:30;0.10;;;0.10;;
16654;SDS011;8441;51.344;7.022;2023-09-07T01:32:57;0.10;;;0.10;;
16654;SDS011;8441;51.344;7.022;2023-09-07T01:35:24;0.10;;;0.10;;
16654;SDS011;8441;51.344;7.022;2023-09-07T01:37:52;0.10;;;0.10;;
16654;SDS011;8441;51.344;7.022;2023-09-07T01:40:21;0.10;;;0.10;;
16654;SDS011;8441;51.344;7.022;2023-09-07T01:42:48;0.10;;;0.10;;
16654;SDS011;8441;51.344;7.022;2023-09-07T01:45:15;0.10;;;0.10;;
16654;SDS011;8441;51.344;7.022;2023-09-07T01:47:43;0.15;;;0.15;;
16654;SDS011;8441;51.344;7.022;2023-09-07T01:50:10;0.10;;;0.10;;
16654;SDS011;8441;51.344;7.022;2023-09-07T01:52:39;0.10;;;0.10;;
16654;SDS011;8441;51.344;7.022;2023-09-07T01:55:07;0.13;;;0.13;;
16654;SDS011;8441;51.344;7.022;2023-09-07T01:57:35;0.10;;;0.10;;
16654;SDS011;8441;51.344;7.022;2023-09-07T02:00:03;0.10;;;0.10;;
16654;SDS011;8441;51.344;7.022;2023-09-07T02:02:31;0.10;;;0.10;;
16654;SDS011;8441;51.344;7.022;2023-09-07T02:07:59;0.10;;;0.10;;
16654;SDS011;8441;51.344;7.022;2023-09-07T02:10:26;0.10;;;0.10;;
16654;SDS011;8441;51.344;7.022;2023-09-07T02:12:55;0.10;;;0.10;;
16654;SDS011;8441;51.344;7.022;2023-09-07T02:15:23;0.10;;;0.10;;
16654;SDS011;8441;51.344;7.022;2023-09-07T02:17:50;0.10;;;0.10;;
16654;SDS011;8441;51.344;7.022;2023-09-07T02:20:17;0.10;;;0.10;;
16654;SDS011;8441;51.344;7.022;2023-09-07T02:22:45;0.10;;;0.10;;
16654;SDS011;8441;51.344;7.022;2023-09-07T02:25:12;0.20;;;0.20;;
16654;SDS011;8441;51.344;7.022;2023-09-07T02:27:40;0.08;;;0.08;;
16654;SDS011;8441;51.344;7.022;2023-09-07T02:30:09;0.10;;;0.10;;
16654;SDS011;8441;51.344;7.022;2023-09-07T02:32:36;0.10;;;0.10;;
16654;SDS011;8441;51.344;7.022;2023-09-07T02:35:04;0.10;;;0.10;;
16654;SDS011;8441;51.344;7.022;2023-09-07T02:37:31;0.10;;;0.10;;
16654;SDS011;8441;51.344;7.022;2023-09-07T02:39:58;0.13;;;0.13;;
16654;SDS011;8441;51.344;7.022;2023-09-07T02:42:26;0.10;;;0.10;;
16654;SDS011;8441;51.344;7.022;2023-09-07T02:44:53;0.10;;;0.10;;
16654;SDS011;8441;51.344;7.022;2023-09-07T02:47:21;0.10;;;0.10;;
16654;SDS011;8441;51.344;7.022;2023-09-07T02:49:48;0.10;;;0.10;;
16654;SDS011;8441;51.344;7.022;2023-09-07T02:52:16;0.10;;;0.10;;
16654;SDS011;8441;51.344;7.022;2023-09-07T02:54:43;0.10;;;0.10;;
16654;SDS011;8441;51.344;7.022;2023-09-07T02:57:10;0.10;;;0.10;;
16654;SDS011;8441;51.344;7.022;2023-09-07T02:59:37;0.10;;;0.10;;
16654;SDS011;8441;51.344;7.022;2023-09-07T03:02:04;0.10;;;0.10;;
16654;SDS011;8441;51.344;7.022;2023-09-07T03:04:34;0.10;;;0.10;;
16654;SDS011;8441;51.344;7.022;2023-09-07T03:07:01;0.10;;;0.10;;
16654;SDS011;8441;51.344;7.022;2023-09-07T03:09:28;0.10;;;0.10;;
16654;SDS011;8441;51.344;7.022;2023-09-07T03:11:55;0.10;;;0.10;;
16654;SDS011;8441;51.344;7.022;2023-09-07T03:14:23;0.10;;;0.10;;
16654;SDS011;8441;51.344;7.022;2023-09-07T03:16:50;0.10;;;0.10;;
16654;SDS011;8441;51.344;7.022;2023-09-07T03:19:17;0.10;;;0.10;;
16654;SDS011;8441;51.344;7.022;2023-09-07T03:21:46;0.10;;;0.10;;
16654;SDS011;8441;51.344;7.022;2023-09-07T03:24:13;0.10;;;0.10;;
16654;SDS011;8441;51.344;7.022;2023-09-07T03:26:41;0.10;;;0.10;;
16654;SDS011;8441;51.344;7.022;2023-09-07T03:29:08;0.10;;;0.10;;
16654;SDS011;8441;51.344;7.022;2023-09-07T03:31:36;0.10;;;0.10;;
16654;SDS011;8441;51.344;7.022;2023-09-07T03:34:03;0.10;;;0.10;;
16654;SDS011;8441;51.344;7.022;2023-09-07T03:36:30;0.10;;;0.10;;
16654;SDS011;8441;51.344;7.022;2023-09-07T03:38:59;0.20;;;0.20;;
16654;SDS011;8441;51.344;7.022;2023-09-07T03:41:26;0.10;;;0.10;;
16654;SDS011;8441;51.344;7.022;2023-09-07T03:43:56;0.10;;;0.10;;
16654;SDS011;8441;51.344;7.022;2023-09-07T03:46:24;0.10;;;0.10;;
16654;SDS011;8441;51.344;7.022;2023-09-07T03:48:52;0.10;;;0.10;;
16654;SDS011;8441;51.344;7.022;2023-09-07T03:51:19;0.10;;;0.10;;
16654;SDS011;8441;51.344;7.022;2023-09-07T03:53:46;0.10;;;0.10;;
16654;SDS011;8441;51.344;7.022;2023-09-07T03:56:15;0.13;;;0.13;;
16654;SDS011;8441;51.344;7.022;2023-09-07T03:58:42;0.10;;;0.10;;
16654;SDS011;8441;51.344;7.022;2023-09-07T04:01:09;0.10;;;0.10;;
16654;SDS011;8441;51.344;7.022;2023-09-07T04:03:36;0.17;;;0.17;;
16654;SDS011;8441;51.344;7.022;2023-09-07T04:06:03;0.10;;;0.10;;
16654;SDS011;8441;51.344;7.022;2023-09-07T04:08:31;0.10;;;0.10;;
16654;SDS011;8441;51.344;7.022;2023-09-07T04:10:58;0.10;;;0.10;;
16654;SDS011;8441;51.344;7.022;2023-09-07T04:13:30;0.10;;;0.10;;
16654;SDS011;8441;51.344;7.022;2023-09-07T04:15:58;0.10;;;0.10;;
16654;SDS011;8441;51.344;7.022;2023-09-07T04:18:25;0.20;;;0.20;;
16654;SDS011;8441;51.344;7.022;2023-09-07T04:20:52;0.10;;;0.10;;
16654;SDS011;8441;51.344;7.022;2023-09-07T04:23:20;0.10;;;0.10;;
16654;SDS011;8441;51.344;7.022;2023-09-07T04:25:48;0.10;;;0.10;;
16654;SDS011;8441;51.344;7.022;2023-09-07T04:28:15;0.10;;;0.10;;
16654;SDS011;8441;51.344;7.022;2023-09-07T04:30:43;0.10;;;0.10;;
16654;SDS011;8441;51.344;7.022;2023-09-07T04:33:10;0.20;;;0.20;;
16654;SDS011;8441;51.344;7.022;2023-09-07T04:35:38;0.10;;;0.10;;
16654;SDS011;8441;51.344;7.022;2023-09-07T04:38:05;0.10;;;0.10;;
16654;SDS011;8441;51.344;7.022;2023-09-07T04:40:32;0.17;;;0.17;;
16654;SDS011;8441;51.344;7.022;2023-09-07T04:42:59;0.10;;;0.10;;
16654;SDS011;8441;51.344;7.022;2023-09-07T04:45:26;0.10;;;0.10;;
16654;SDS011;8441;51.344;7.022;2023-09-07T04:47:55;0.10;;;0.10;;
16654;SDS011;8441;51.344;7.022;2023-09-07T04:50:22;0.10;;;0.10;;
16654;SDS011;8441;51.344;7.022;2023-09-07T04:52:49;0.10;;;0.10;;
16654;SDS011;8441;51.344;7.022;2023-09-07T04:55:17;0.17;;;0.17;;
16654;SDS011;8441;51.344;7.022;2023-09-07T04:57:44;0.20;;;0.20;;
16654;SDS011;8441;51.344;7.022;2023-09-07T05:00:11;0.10;;;0.10;;
16654;SDS011;8441;51.344;7.022;2023-09-07T05:02:39;0.10;;;0.10;;
16654;SDS011;8441;51.344;7.022;2023-09-07T05:05:09;0.15;;;0.15;;
16654;SDS011;8441;51.344;7.022;2023-09-07T05:07:36;0.10;;;0.10;;
16654;SDS011;8441;51.344;7.022;2023-09-07T05:10:04;0.10;;;0.10;;
16654;SDS011;8441;51.344;7.022;2023-09-07T05:12:33;0.10;;;0.10;;
16654;SDS011;8441;51.344;7.022;2023-09-07T05:15:01;0.10;;;0.10;;
16654;SDS011;8441;51.344;7.022;2023-09-07T05:17:29;0.10;;;0.10;;
16654;SDS011;8441;51.344;7.022;2023-09-07T05:19:56;0.10;;;0.10;;
16654;SDS011;8441;51.344;7.022;2023-09-07T05:22:25;0.10;;;0.10;;
16654;SDS011;8441;51.344;7.022;2023-09-07T05:24:52;0.20;;;0.20;;
16654;SDS011;8441;51.344;7.022;2023-09-07T05:27:19;0.10;;;0.10;;
16654;SDS011;8441;51.344;7.022;2023-09-07T05:29:47;0.10;;;0.10;;
16654;SDS011;8441;51.344;7.022;2023-09-07T05:32:14;0.10;;;0.10;;
16654;SDS011;8441;51.344;7.022;2023-09-07T05:34:41;0.10;;;0.10;;
16654;SDS011;8441;51.344;7.022;2023-09-07T05:37:08;0.10;;;0.10;;
16654;SDS011;8441;51.344;7.022;2023-09-07T05:39:37;0.15;;;0.15;;
16654;SDS011;8441;51.344;7.022;2023-09-07T05:42:04;0.10;;;0.10;;
16654;SDS011;8441;51.344;7.022;2023-09-07T05:44:31;0.10;;;0.10;;
16654;SDS011;8441;51.344;7.022;2023-09-07T05:46:58;0.10;;;0.10;;
16654;SDS011;8441;51.344;7.022;2023-09-07T05:49:27;0.10;;;0.10;;
16654;SDS011;8441;51.344;7.022;2023-09-07T05:51:54;0.10;;;0.10;;
16654;SDS011;8441;51.344;7.022;2023-09-07T05:54:22;0.10;;;0.10;;
16654;SDS011;8441;51.344;7.022;2023-09-07T05:56:50;0.10;;;0.10;;
16654;SDS011;8441;51.344;7.022;2023-09-07T05:59:17;0.10;;;0.10;;
16654;SDS011;8441;51.344;7.022;2023-09-07T06:01:45;0.10;;;0.10;;
16654;SDS011;8441;51.344;7.022;2023-09-07T06:04:12;0.10;;;0.10;;
16654;SDS011;8441;51.344;7.022;2023-09-07T06:06:39;0.10;;;0.10;;
16654;SDS011;8441;51.344;7.022;2023-09-07T06:09:06;0.10;;;0.10;;
16654;SDS011;8441;51.344;7.022;2023-09-07T06:11:33;0.10;;;0.10;;
16654;SDS011;8441;51.344;7.022;2023-09-07T06:14:02;0.10;;;0.10;;
16654;SDS011;8441;51.344;7.022;2023-09-07T06:16:29;0.10;;;0.10;;
16654;SDS011;8441;51.344;7.022;2023-09-07T06:18:57;0.10;;;0.10;;
16654;SDS011;8441;51.344;7.022;2023-09-07T06:21:24;0.10;;;0.10;;
16654;SDS011;8441;51.344;7.022;2023-09-07T06:23:51;0.10;;;0.10;;
16654;SDS011;8441;51.344;7.022;2023-09-07T06:26:18;0.10;;;0.10;;
16654;SDS011;8441;51.344;7.022;2023-09-07T06:28:45;0.10;;;0.10;;
16654;SDS011;8441;51.344;7.022;2023-09-07T06:31:14;0.10;;;0.10;;
16654;SDS011;8441;51.344;7.022;2023-09-07T06:33:41;0.10;;;0.10;;
16654;SDS011;8441;51.344;7.022;2023-09-07T06:36:08;0.10;;;0.10;;
16654;SDS011;8441;51.344;7.022;2023-09-07T06:38:36;0.10;;;0.10;;
16654;SDS011;8441;51.344;7.022;2023-09-07T06:41:03;0.10;;;0.10;;
16654;SDS011;8441;51.344;7.022;2023-09-07T06:43:32;0.10;;;0.10;;
16654;SDS011;8441;51.344;7.022;2023-09-07T06:46:05;0.10;;;0.10;;
16654;SDS011;8441;51.344;7.022;2023-09-07T06:48:34;0.10;;;0.10;;
16654;SDS011;8441;51.344;7.022;2023-09-07T06:51:02;0.10;;;0.10;;
16654;SDS011;8441;51.344;7.022;2023-09-07T06:53:29;0.10;;;0.10;;
16654;SDS011;8441;51.344;7.022;2023-09-07T06:55:57;0.10;;;0.10;;
16654;SDS011;8441;51.344;7.022;2023-09-07T06:58:24;0.10;;;0.10;;
16654;SDS011;8441;51.344;7.022;2023-09-07T07:00:52;0.10;;;0.10;;
16654;SDS011;8441;51.344;7.022;2023-09-07T07:03:19;0.10;;;0.10;;
16654;SDS011;8441;51.344;7.022;2023-09-07T07:05:48;0.10;;;0.10;;
16654;SDS011;8441;51.344;7.022;2023-09-07T07:08:15;0.10;;;0.10;;
16654;SDS011;8441;51.344;7.022;2023-09-07T07:10:42;0.10;;;0.10;;
16654;SDS011;8441;51.344;7.022;2023-09-07T07:13:10;0.10;;;0.10;;
16654;SDS011;8441;51.344;7.022;2023-09-07T07:15:38;0.10;;;0.10;;
16654;SDS011;8441;51.344;7.022;2023-09-07T07:18:05;0.10;;;0.10;;
16654;SDS011;8441;51.344;7.022;2023-09-07T07:20:34;0.10;;;0.10;;
16654;SDS011;8441;51.344;7.022;2023-09-07T07:23:02;0.08;;;0.08;;
16654;SDS011;8441;51.344;7.022;2023-09-07T07:25:31;0.10;;;0.10;;
16654;SDS011;8441;51.344;7.022;2023-09-07T07:27:59;0.10;;;0.10;;
16654;SDS011;8441;51.344;7.022;2023-09-07T07:30:28;0.10;;;0.10;;
16654;SDS011;8441;51.344;7.022;2023-09-07T07:32:56;0.10;;;0.10;;
16654;SDS011;8441;51.344;7.022;2023-09-07T07:35:23;0.10;;;0.10;;
16654;SDS011;8441;51.344;7.022;2023-09-07T07:37:50;0.10;;;0.10;;
16654;SDS011;8441;51.344;7.022;2023-09-07T07:40:19;0.00;;;0.00;;
16654;SDS011;8441;51.344;7.022;2023-09-07T07:42:46;0.10;;;0.10;;
16654;SDS011;8441;51.344;7.022;2023-09-07T07:45:14;0.10;;;0.10;;
16654;SDS011;8441;51.344;7.022;2023-09-07T07:47:44;0.10;;;0.10;;
16654;SDS011;8441;51.344;7.022;2023-09-07T07:50:12;0.10;;;0.10;;
16654;SDS011;8441;51.344;7.022;2023-09-07T07:52:39;0.00;;;0.00;;
16654;SDS011;8441;51.344;7.022;2023-09-07T07:55:07;0.03;;;0.03;;
16654;SDS011;8441;51.344;7.022;2023-09-07T07:57:36;0.10;;;0.10;;
16654;SDS011;8441;51.344;7.022;2023-09-07T08:00:04;0.10;;;0.10;;
16654;SDS011;8441;51.344;7.022;2023-09-07T08:02:32;0.10;;;0.10;;
16654;SDS011;8441;51.344;7.022;2023-09-07T08:04:59;0.10;;;0.10;;
16654;SDS011;8441;51.344;7.022;2023-09-07T08:07:26;0.10;;;0.10;;
16654;SDS011;8441;51.344;7.022;2023-09-07T08:09:53;0.10;;;0.10;;
16654;SDS011;8441;51.344;7.022;2023-09-07T08:12:21;0.10;;;0.10;;
16654;SDS011;8441;51.344;7.022;2023-09-07T08:14:49;0.10;;;0.10;;
16654;SDS011;8441;51.344;7.022;2023-09-07T08:17:16;0.10;;;0.10;;
16654;SDS011;8441;51.344;7.022;2023-09-07T08:19:45;0.05;;;0.05;;
16654;SDS011;8441;51.344;7.022;2023-09-07T08:22:13;0.10;;;0.10;;
16654;SDS011;8441;51.344;7.022;2023-09-07T08:24:41;0.10;;;0.10;;
16654;SDS011;8441;51.344;7.022;2023-09-07T08:27:09;0.10;;;0.10;;
16654;SDS011;8441;51.344;7.022;2023-09-07T08:29:43;0.00;;;0.00;;
16654;SDS011;8441;51.344;7.022;2023-09-07T08:32:14;0.10;;;0.10;;
16654;SDS011;8441;51.344;7.022;2023-09-07T08:34:42;0.10;;;0.10;;
16654;SDS011;8441;51.344;7.022;2023-09-07T08:37:09;0.10;;;0.10;;
16654;SDS011;8441;51.344;7.022;2023-09-07T08:39:36;0.10;;;0.10;;
16654;SDS011;8441;51.344;7.022;2023-09-07T08:42:04;0.10;;;0.10;;
16654;SDS011;8441;51.344;7.022;2023-09-07T08:44:32;0.10;;;0.10;;
16654;SDS011;8441;51.344;7.022;2023-09-07T08:47:00;0.10;;;0.10;;
16654;SDS011;8441;51.344;7.022;2023-09-07T08:49:30;0.10;;;0.10;;
16654;SDS011;8441;51.344;7.022;2023-09-07T08:51:59;0.10;;;0.10;;
16654;SDS011;8441;51.344;7.022;2023-09-07T08:54:28;0.10;;;0.10;;
16654;SDS011;8441;51.344;7.022;2023-09-07T08:56:56;0.00;;;0.00;;
16654;SDS011;8441;51.344;7.022;2023-09-07T08:59:24;0.00;;;0.00;;
16654;SDS011;8441;51.344;7.022;2023-09-07T09:01:55;0.10;;;0.10;;
16654;SDS011;8441;51.344;7.022;2023-09-07T09:04:23;0.10;;;0.10;;
16654;SDS011;8441;51.344;7.022;2023-09-07T09:06:52;0.10;;;0.10;;
16654;SDS011;8441;51.344;7.022;2023-09-07T09:09:22;0.10;;;0.10;;
16654;SDS011;8441;51.344;7.022;2023-09-07T09:11:50;0.10;;;0.10;;
16654;SDS011;8441;51.344;7.022;2023-09-07T09:14:18;0.10;;;0.10;;
16654;SDS011;8441;51.344;7.022;2023-09-07T09:16:50;0.00;;;0.00;;
16654;SDS011;8441;51.344;7.022;2023-09-07T09:19:18;0.00;;;0.00;;
16654;SDS011;8441;51.344;7.022;2023-09-07T09:21:45;0.00;;;0.00;;
16654;SDS011;8441;51.344;7.022;2023-09-07T09:24:16;0.10;;;0.10;;
16654;SDS011;8441;51.344;7.022;2023-09-07T09:26:43;0.10;;;0.10;;
16654;SDS011;8441;51.344;7.022;2023-09-07T09:29:11;0.00;;;0.00;;
16654;SDS011;8441;51.344;7.022;2023-09-07T09:31:39;0.00;;;0.00;;
16654;SDS011;8441;51.344;7.022;2023-09-07T09:34:08;0.00;;;0.00;;
16654;SDS011;8441;51.344;7.022;2023-09-07T09:36:35;0.00;;;0.00;;
16654;SDS011;8441;51.344;7.022;2023-09-07T09:39:03;0.00;;;0.00;;
16654;SDS011;8441;51.344;7.022;2023-09-07T09:41:33;0.03;;;0.03;;
16654;SDS011;8441;51.344;7.022;2023-09-07T09:44:00;0.10;;;0.10;;
16654;SDS011;8441;51.344;7.022;2023-09-07T09:46:29;0.00;;;0.00;;
16654;SDS011;8441;51.344;7.022;2023-09-07T09:48:58;0.00;;;0.00;;
16654;SDS011;8441;51.344;7.022;2023-09-07T09:51:27;0.03;;;0.03;;
16654;SDS011;8441;51.344;7.022;2023-09-07T09:53:54;0.10;;;0.10;;
16654;SDS011;8441;51.344;7.022;2023-09-07T09:56:22;0.00;;;0.00;;
16654;SDS011;8441;51.344;7.022;2023-09-07T09:58:52;0.00;;;0.00;;
16654;SDS011;8441;51.344;7.022;2023-09-07T10:01:19;0.00;;;0.00;;
16654;SDS011;8441;51.344;7.022;2023-09-07T10:03:48;0.00;;;0.00;;
16654;SDS011;8441;51.344;7.022;2023-09-07T10:06:20;0.00;;;0.00;;
16654;SDS011;8441;51.344;7.022;2023-09-07T10:08:55;0.00;;;0.00;;
16654;SDS011;8441;51.344;7.022;2023-09-07T10:11:29;0.00;;;0.00;;
16654;SDS011;8441;51.344;7.022;2023-09-07T10:13:59;0.00;;;0.00;;
16654;SDS011;8441;51.344;7.022;2023-09-07T10:16:28;0.00;;;0.00;;
16654;SDS011;8441;51.344;7.022;2023-09-07T10:19:13;0.00;;;0.00;;
16654;SDS011;8441;51.344;7.022;2023-09-07T10:21:41;0.00;;;0.00;;
16654;SDS011;8441;51.344;7.022;2023-09-07T10:24:08;0.10;;;0.10;;
16654;SDS011;8441;51.344;7.022;2023-09-07T10:26:36;0.00;;;0.00;;
16654;SDS011;8441;51.344;7.022;2023-09-07T10:29:05;0.10;;;0.10;;
16654;SDS011;8441;51.344;7.022;2023-09-07T10:31:32;0.00;;;0.00;;
16654;SDS011;8441;51.344;7.022;2023-09-07T10:34:08;0.00;;;0.00;;
16654;SDS011;8441;51.344;7.022;2023-09-07T10:36:37;0.00;;;0.00;;
16654;SDS011;8441;51.344;7.022;2023-09-07T10:39:04;0.00;;;0.00;;
16654;SDS011;8441;51.344;7.022;2023-09-07T10:41:41;0.00;;;0.00;;
16654;SDS011;8441;51.344;7.022;2023-09-07T10:44:11;0.00;;;0.00;;
16654;SDS011;8441;51.344;7.022;2023-09-07T10:46:39;0.00;;;0.00;;
16654;SDS011;8441;51.344;7.022;2023-09-07T10:49:06;0.00;;;0.00;;
16654;SDS011;8441;51.344;7.022;2023-09-07T10:51:41;0.00;;;0.00;;
16654;SDS011;8441;51.344;7.022;2023-09-07T10:54:15;0.00;;;0.00;;
16654;SDS011;8441;51.344;7.022;2023-09-07T10:56:43;0.00;;;0.00;;
16654;SDS011;8441;51.344;7.022;2023-09-07T10:59:13;0.00;;;0.00;;
16654;SDS011;8441;51.344;7.022;2023-09-07T11:01:40;0.00;;;0.00;;
16654;SDS011;8441;51.344;7.022;2023-09-07T11:04:07;0.00;;;0.00;;
16654;SDS011;8441;51.344;7.022;2023-09-07T11:06:36;0.00;;;0.00;;
16654;SDS011;8441;51.344;7.022;2023-09-07T11:09:04;0.00;;;0.00;;
16654;SDS011;8441;51.344;7.022;2023-09-07T11:11:34;0.00;;;0.00;;
16654;SDS011;8441;51.344;7.022;2023-09-07T11:14:01;0.00;;;0.00;;
16654;SDS011;8441;51.344;7.022;2023-09-07T11:16:32;0.00;;;0.00;;
16654;SDS011;8441;51.344;7.022;2023-09-07T11:19:02;0.00;;;0.00;;
16654;SDS011;8441;51.344;7.022;2023-09-07T11:21:30;0.00;;;0.00;;
16654;SDS011;8441;51.344;7.022;2023-09-07T11:23:58;0.00;;;0.00;;
16654;SDS011;8441;51.344;7.022;2023-09-07T11:26:25;0.00;;;0.00;;
16654;SDS011;8441;51.344;7.022;2023-09-07T11:28:52;0.00;;;0.00;;
16654;SDS011;8441;51.344;7.022;2023-09-07T11:31:20;0.00;;;0.00;;
16654;SDS011;8441;51.344;7.022;2023-09-07T11:33:49;0.00;;;0.00;;
16654;SDS011;8441;51.344;7.022;2023-09-07T11:36:16;0.00;;;0.00;;
16654;SDS011;8441;51.344;7.022;2023-09-07T11:38:43;0.00;;;0.00;;
16654;SDS011;8441;51.344;7.022;2023-09-07T11:41:11;0.00;;;0.00;;
16654;SDS011;8441;51.344;7.022;2023-09-07T11:43:38;0.00;;;0.00;;
16654;SDS011;8441;51.344;7.022;2023-09-07T11:46:07;0.00;;;0.00;;
16654;SDS011;8441;51.344;7.022;2023-09-07T11:48:34;0.00;;;0.00;;
16654;SDS011;8441;51.344;7.022;2023-09-07T11:51:03;0.00;;;0.00;;
16654;SDS011;8441;51.344;7.022;2023-09-07T11:53:30;0.00;;;0.00;;
16654;SDS011;8441;51.344;7.022;2023-09-07T11:55:57;0.00;;;0.00;;
16654;SDS011;8441;51.344;7.022;2023-09-07T11:58:24;0.00;;;0.00;;
16654;SDS011;8441;51.344;7.022;2023-09-07T12:00:52;0.00;;;0.00;;
16654;SDS011;8441;51.344;7.022;2023-09-07T12:03:20;0.00;;;0.00;;
16654;SDS011;8441;51.344;7.022;2023-09-07T12:05:47;0.00;;;0.00;;
16654;SDS011;8441;51.344;7.022;2023-09-07T12:08:16;0.00;;;0.00;;
16654;SDS011;8441;51.344;7.022;2023-09-07T12:10:43;0.00;;;0.00;;
16654;SDS011;8441;51.344;7.022;2023-09-07T12:13:10;0.00;;;0.00;;
16654;SDS011;8441;51.344;7.022;2023-09-07T12:15:38;0.00;;;0.00;;
16654;SDS011;8441;51.344;7.022;2023-09-07T12:18:05;0.00;;;0.00;;
16654;SDS011;8441;51.344;7.022;2023-09-07T12:20:32;0.00;;;0.00;;
16654;SDS011;8441;51.344;7.022;2023-09-07T12:23:00;0.00;;;0.00;;
16654;SDS011;8441;51.344;7.022;2023-09-07T12:25:28;0.00;;;0.00;;
16654;SDS011;8441;51.344;7.022;2023-09-07T12:27:57;0.00;;;0.00;;
16654;SDS011;8441;51.344;7.022;2023-09-07T12:30:24;0.00;;;0.00;;
16654;SDS011;8441;51.344;7.022;2023-09-07T12:32:51;0.00;;;0.00;;
16654;SDS011;8441;51.344;7.022;2023-09-07T12:35:19;0.00;;;0.00;;
16654;SDS011;8441;51.344;7.022;2023-09-07T12:37:46;0.00;;;0.00;;
16654;SDS011;8441;51.344;7.022;2023-09-07T12:40:13;0.00;;;0.00;;
16654;SDS011;8441;51.344;7.022;2023-09-07T12:42:49;0.00;;;0.00;;
16654;SDS011;8441;51.344;7.022;2023-09-07T12:45:17;0.00;;;0.00;;
16654;SDS011;8441;51.344;7.022;2023-09-07T12:47:44;0.00;;;0.00;;
16654;SDS011;8441;51.344;7.022;2023-09-07T12:50:11;0.00;;;0.00;;
16654;SDS011;8441;51.344;7.022;2023-09-07T12:52:39;0.00;;;0.00;;
16654;SDS011;8441;51.344;7.022;2023-09-07T12:55:07;0.00;;;0.00;;
16654;SDS011;8441;51.344;7.022;2023-09-07T12:57:34;0.00;;;0.00;;
16654;SDS011;8441;51.344;7.022;2023-09-07T13:00:04;0.00;;;0.00;;
16654;SDS011;8441;51.344;7.022;2023-09-07T13:02:32;0.00;;;0.00;;
16654;SDS011;8441;51.344;7.022;2023-09-07T13:04:59;0.00;;;0.00;;
16654;SDS011;8441;51.344;7.022;2023-09-07T13:07:30;0.00;;;0.00;;
16654;SDS011;8441;51.344;7.022;2023-09-07T13:09:58;0.00;;;0.00;;
16654;SDS011;8441;51.344;7.022;2023-09-07T13:12:27;0.00;;;0.00;;
16654;SDS011;8441;51.344;7.022;2023-09-07T13:14:54;0.00;;;0.00;;
16654;SDS011;8441;51.344;7.022;2023-09-07T13:17:23;0.00;;;0.00;;
16654;SDS011;8441;51.344;7.022;2023-09-07T13:19:50;0.00;;;0.00;;
16654;SDS011;8441;51.344;7.022;2023-09-07T13:22:17;0.00;;;0.00;;
16654;SDS011;8441;51.344;7.022;2023-09-07T13:24:44;0.00;;;0.00;;
16654;SDS011;8441;51.344;7.022;2023-09-07T13:27:11;0.00;;;0.00;;
16654;SDS011;8441;51.344;7.022;2023-09-07T13:29:39;0.00;;;0.00;;
16654;SDS011;8441;51.344;7.022;2023-09-07T13:32:06;0.00;;;0.00;;
16654;SDS011;8441;51.344;7.022;2023-09-07T13:34:34;0.00;;;0.00;;
16654;SDS011;8441;51.344;7.022;2023-09-07T13:37:02;0.00;;;0.00;;
16654;SDS011;8441;51.344;7.022;2023-09-07T13:39:29;0.00;;;0.00;;
16654;SDS011;8441;51.344;7.022;2023-09-07T13:41:56;0.00;;;0.00;;
16654;SDS011;8441;51.344;7.022;2023-09-07T13:44:23;0.00;;;0.00;;
16654;SDS011;8441;51.344;7.022;2023-09-07T13:46:51;0.00;;;0.00;;
16654;SDS011;8441;51.344;7.022;2023-09-07T13:49:19;0.00;;;0.00;;
16654;SDS011;8441;51.344;7.022;2023-09-07T13:51:47;0.00;;;0.00;;
16654;SDS011;8441;51.344;7.022;2023-09-07T13:54:15;0.00;;;0.00;;
16654;SDS011;8441;51.344;7.022;2023-09-07T13:56:42;0.00;;;0.00;;
16654;SDS011;8441;51.344;7.022;2023-09-07T13:59:10;0.00;;;0.00;;
16654;SDS011;8441;51.344;7.022;2023-09-07T14:01:37;0.00;;;0.00;;
16654;SDS011;8441;51.344;7.022;2023-09-07T14:04:05;0.00;;;0.00;;
16654;SDS011;8441;51.344;7.022;2023-09-07T14:06:32;0.00;;;0.00;;
16654;SDS011;8441;51.344;7.022;2023-09-07T14:09:01;0.00;;;0.00;;
16654;SDS011;8441;51.344;7.022;2023-09-07T14:11:28;0.00;;;0.00;;
16654;SDS011;8441;51.344;7.022;2023-09-07T14:13:56;0.00;;;0.00;;
16654;SDS011;8441;51.344;7.022;2023-09-07T14:16:23;0.00;;;0.00;;
16654;SDS011;8441;51.344;7.022;2023-09-07T14:18:50;0.00;;;0.00;;
16654;SDS011;8441;51.344;7.022;2023-09-07T14:21:17;0.00;;;0.00;;
16654;SDS011;8441;51.344;7.022;2023-09-07T14:23:44;0.00;;;0.00;;
16654;SDS011;8441;51.344;7.022;2023-09-07T14:26:13;0.00;;;0.00;;
16654;SDS011;8441;51.344;7.022;2023-09-07T14:28:41;0.00;;;0.00;;
16654;SDS011;8441;51.344;7.022;2023-09-07T14:31:07;0.00;;;0.00;;
16654;SDS011;8441;51.344;7.022;2023-09-07T14:33:34;0.00;;;0.00;;
16654;SDS011;8441;51.344;7.022;2023-09-07T14:36:04;0.00;;;0.00;;
16654;SDS011;8441;51.344;7.022;2023-09-07T14:38:31;0.00;;;0.00;;
16654;SDS011;8441;51.344;7.022;2023-09-07T14:40:59;0.00;;;0.00;;
16654;SDS011;8441;51.344;7.022;2023-09-07T14:43:29;0.00;;;0.00;;
16654;SDS011;8441;51.344;7.022;2023-09-07T14:45:56;0.00;;;0.00;;
16654;SDS011;8441;51.344;7.022;2023-09-07T14:48:24;0.00;;;0.00;;
16654;SDS011;8441;51.344;7.022;2023-09-07T14:50:51;0.00;;;0.00;;
16654;SDS011;8441;51.344;7.022;2023-09-07T14:53:18;0.00;;;0.00;;
16654;SDS011;8441;51.344;7.022;2023-09-07T14:55:45;0.00;;;0.00;;
16654;SDS011;8441;51.344;7.022;2023-09-07T14:58:13;0.00;;;0.00;;
16654;SDS011;8441;51.344;7.022;2023-09-07T15:00:41;0.00;;;0.00;;
16654;SDS011;8441;51.344;7.022;2023-09-07T15:03:09;0.00;;;0.00;;
16654;SDS011;8441;51.344;7.022;2023-09-07T15:05:36;0.00;;;0.00;;
16654;SDS011;8441;51.344;7.022;2023-09-07T15:08:03;0.00;;;0.00;;